createdAt,value
2018-06-21T00:00:23.788Z,995.18
2018-06-21T00:01:23.770Z,995.20
2018-06-21T00:02:23.757Z,995.19
2018-06-21T00:03:23.740Z,995.19
2018-06-21T00:04:23.727Z,995.20
2018-06-21T00:05:23.714Z,995.21
2018-06-21T00:06:23.702Z,995.20
2018-06-21T00:07:23.687Z,995.20
2018-06-21T00:08:23.676Z,995.17
2018-06-21T00:09:23.665Z,995.20
2018-06-21T00:10:23.647Z,995.18
2018-06-21T00:11:23.638Z,995.15
2018-06-21T00:12:23.621Z,995.13
2018-06-21T00:13:23.611Z,995.13
2018-06-21T00:14:23.592Z,995.12
2018-06-21T00:15:23.583Z,995.10
2018-06-21T00:16:23.569Z,995.06
2018-06-21T00:17:23.551Z,995.05
2018-06-21T00:18:23.554Z,995.05
2018-06-21T00:19:23.525Z,995.05
2018-06-21T00:20:23.518Z,995.03
2018-06-21T00:21:23.505Z,995.03
2018-06-21T00:22:23.489Z,995.03
2018-06-21T00:23:23.473Z,995.02
2018-06-21T00:24:23.462Z,994.98
2018-06-21T00:25:23.449Z,994.95
2018-06-21T00:26:23.425Z,994.98
2018-06-21T00:27:23.419Z,994.95
2018-06-21T00:28:23.409Z,994.96
2018-06-21T00:29:23.448Z,994.96
2018-06-21T00:30:23.376Z,994.93
2018-06-21T00:31:23.372Z,994.93
2018-06-21T00:32:23.355Z,994.91
2018-06-21T00:33:23.335Z,994.92
2018-06-21T00:34:23.327Z,994.92
2018-06-21T00:35:23.307Z,994.90
2018-06-21T00:36:23.300Z,994.88
2018-06-21T00:37:23.281Z,994.86
2018-06-21T00:38:23.265Z,994.84
2018-06-21T00:39:23.252Z,994.81
2018-06-21T00:40:23.239Z,994.81
2018-06-21T00:41:23.226Z,994.80
2018-06-21T00:42:23.213Z,994.81
2018-06-21T00:43:23.201Z,994.75
2018-06-21T00:44:23.185Z,994.75
2018-06-21T00:45:23.176Z,994.76
2018-06-21T00:46:23.163Z,994.77
2018-06-21T00:47:23.143Z,994.74
2018-06-21T00:48:23.134Z,994.74
2018-06-21T00:49:23.134Z,994.73
2018-06-21T00:50:23.106Z,994.69
2018-06-21T00:51:23.096Z,994.70
2018-06-21T00:52:23.079Z,994.66
2018-06-21T00:53:23.063Z,994.69
2018-06-21T00:54:23.057Z,994.68
2018-06-21T00:55:23.035Z,994.68
2018-06-21T00:56:23.028Z,994.65
2018-06-21T00:57:23.008Z,994.67
2018-06-21T00:58:22.995Z,994.68
2018-06-21T00:59:22.982Z,994.67
2018-06-21T01:00:22.967Z,994.62
2018-06-21T01:01:22.960Z,994.59
2018-06-21T01:02:22.944Z,994.57
2018-06-21T01:03:22.931Z,994.56
2018-06-21T01:04:22.912Z,994.55
2018-06-21T01:05:22.902Z,994.55
2018-06-21T01:06:22.893Z,994.55
2018-06-21T01:07:22.874Z,994.55
2018-06-21T01:08:22.858Z,994.57
2018-06-21T01:09:22.854Z,994.56
2018-06-21T01:10:22.832Z,994.55
2018-06-21T01:11:22.815Z,994.55
2018-06-21T01:12:22.805Z,994.55
2018-06-21T01:13:22.794Z,994.52
2018-06-21T01:14:22.783Z,994.53
2018-06-21T01:15:22.760Z,994.54
2018-06-21T01:16:22.747Z,994.54
2018-06-21T01:17:22.741Z,994.51
2018-06-21T01:18:22.725Z,994.51
2018-06-21T01:19:22.712Z,994.49
2018-06-21T01:20:22.700Z,994.49
2018-06-21T01:21:22.684Z,994.47
2018-06-21T01:22:22.664Z,994.49
2018-06-21T01:23:22.655Z,994.49
2018-06-21T01:24:22.648Z,994.51
2018-06-21T01:25:22.636Z,994.45
2018-06-21T01:26:22.611Z,994.45
2018-06-21T01:27:22.598Z,994.43
2018-06-21T01:28:22.585Z,994.46
2018-06-21T01:29:22.568Z,994.44
2018-06-21T01:30:22.559Z,994.43
2018-06-21T01:31:22.540Z,994.43
2018-06-21T01:32:22.530Z,994.42
2018-06-21T01:33:22.518Z,994.43
2018-06-21T01:34:22.504Z,994.44
2018-06-21T01:35:22.485Z,994.42
2018-06-21T01:36:22.476Z,994.45
2018-06-21T01:37:22.463Z,994.41
2018-06-21T01:38:22.450Z,994.43
2018-06-21T01:39:22.428Z,994.45
2018-06-21T01:40:22.418Z,994.45
2018-06-21T01:41:22.403Z,994.48
2018-06-21T01:42:22.396Z,994.44
2018-06-21T01:43:22.377Z,994.42
2018-06-21T01:44:22.364Z,994.43
2018-06-21T01:45:22.343Z,994.42
2018-06-21T01:46:22.337Z,994.45
2018-06-21T01:47:22.322Z,994.42
2018-06-21T01:48:22.305Z,994.42
2018-06-21T01:49:22.298Z,994.39
2018-06-21T01:50:22.281Z,994.39
2018-06-21T01:51:22.265Z,994.42
2018-06-21T01:52:22.253Z,994.41
2018-06-21T01:53:22.240Z,994.40
2018-06-21T01:54:22.221Z,994.40
2018-06-21T01:55:22.211Z,994.37
2018-06-21T01:56:22.195Z,994.42
2018-06-21T01:57:22.183Z,994.42
2018-06-21T01:58:22.176Z,994.41
2018-06-21T01:59:22.151Z,994.40
2018-06-21T02:00:22.136Z,994.40
2018-06-21T02:01:22.122Z,994.40
2018-06-21T02:02:22.109Z,994.40
2018-06-21T02:03:22.093Z,994.37
2018-06-21T02:04:22.087Z,994.37
2018-06-21T02:05:22.067Z,994.36
2018-06-21T02:06:22.061Z,994.38
2018-06-21T02:07:22.036Z,994.35
2018-06-21T02:08:22.024Z,994.33
2018-06-21T02:09:22.014Z,994.34
2018-06-21T02:10:22.008Z,994.31
2018-06-21T02:11:21.988Z,994.33
2018-06-21T02:12:21.975Z,994.34
2018-06-21T02:13:21.960Z,994.37
2018-06-21T02:14:21.940Z,994.38
2018-06-21T02:15:21.924Z,994.37
2018-06-21T02:16:21.914Z,994.40
2018-06-21T02:17:21.898Z,994.39
2018-06-21T02:18:21.886Z,994.38
2018-06-21T02:19:21.870Z,994.36
2018-06-21T02:20:21.857Z,994.33
2018-06-21T02:21:21.845Z,994.34
2018-06-21T02:22:21.827Z,994.34
2018-06-21T02:23:21.814Z,994.34
2018-06-21T02:24:21.802Z,994.35
2018-06-21T02:25:21.788Z,994.34
2018-06-21T02:26:21.779Z,994.34
2018-06-21T02:27:21.763Z,994.33
2018-06-21T02:28:21.750Z,994.31
2018-06-21T02:29:21.731Z,994.29
2018-06-21T02:30:21.719Z,994.29
2018-06-21T02:31:21.705Z,994.33
2018-06-21T02:32:21.697Z,994.33
2018-06-21T02:33:21.680Z,994.31
2018-06-21T02:34:21.722Z,994.30
2018-06-21T02:35:21.648Z,994.27
2018-06-21T02:36:21.635Z,994.29
2018-06-21T02:37:21.617Z,994.26
2018-06-21T02:38:21.602Z,994.22
2018-06-21T02:39:21.597Z,994.20
2018-06-21T02:40:21.582Z,994.22
2018-06-21T02:41:21.569Z,994.25
2018-06-21T02:42:21.553Z,994.21
2018-06-21T02:43:21.534Z,994.21
2018-06-21T02:44:21.521Z,994.19
2018-06-21T02:45:21.506Z,994.19
2018-06-21T02:46:21.494Z,994.17
2018-06-21T02:47:21.477Z,994.18
2018-06-21T02:48:21.470Z,994.17
2018-06-21T02:49:21.451Z,994.18
2018-06-21T02:50:21.441Z,994.16
2018-06-21T02:51:21.423Z,994.18
2018-06-21T02:52:21.411Z,994.19
2018-06-21T02:53:21.398Z,994.19
2018-06-21T02:54:21.380Z,994.19
2018-06-21T02:55:21.373Z,994.18
2018-06-21T02:56:21.364Z,994.16
2018-06-21T02:57:21.341Z,994.19
2018-06-21T02:58:21.326Z,994.17
2018-06-21T02:59:21.313Z,994.17
2018-06-21T03:00:21.303Z,994.13
2018-06-21T03:01:21.287Z,994.10
2018-06-21T03:02:21.271Z,994.09
2018-06-21T03:03:21.258Z,994.11
2018-06-21T03:04:21.261Z,994.08
2018-06-21T03:05:21.230Z,994.07
2018-06-21T03:06:21.227Z,994.09
2018-06-21T03:07:21.200Z,994.10
2018-06-21T03:08:21.192Z,994.09
2018-06-21T03:09:21.185Z,994.08
2018-06-21T03:10:21.161Z,994.05
2018-06-21T03:11:21.152Z,994.06
2018-06-21T03:12:21.138Z,994.05
2018-06-21T03:13:21.125Z,994.07
2018-06-21T03:14:21.109Z,994.06
2018-06-21T03:15:21.090Z,994.05
2018-06-21T03:16:21.075Z,994.07
2018-06-21T03:17:21.065Z,994.09
2018-06-21T03:18:21.052Z,994.08
2018-06-21T03:19:21.043Z,994.04
2018-06-21T03:20:21.030Z,994.04
2018-06-21T03:21:21.019Z,994.04
2018-06-21T03:22:21.004Z,994.07
2018-06-21T03:23:20.981Z,994.01
2018-06-21T03:24:20.972Z,994.06
2018-06-21T03:25:20.959Z,994.08
2018-06-21T03:26:20.940Z,994.10
2018-06-21T03:27:20.927Z,994.05
2018-06-21T03:28:20.914Z,994.07
2018-06-21T03:29:20.905Z,994.04
2018-06-21T03:30:20.889Z,994.04
2018-06-21T03:31:20.873Z,993.99
2018-06-21T03:32:20.863Z,994.05
2018-06-21T03:33:20.847Z,994.05
2018-06-21T03:34:20.837Z,994.02
2018-06-21T03:35:20.861Z,994.05
2018-06-21T03:36:20.811Z,994.05
2018-06-21T03:37:20.790Z,994.09
2018-06-21T03:38:20.780Z,994.11
2018-06-21T03:39:20.763Z,994.09
2018-06-21T03:40:20.751Z,994.07
2018-06-21T03:41:20.736Z,994.09
2018-06-21T03:42:20.732Z,994.10
2018-06-21T03:43:20.713Z,994.07
2018-06-21T03:44:20.696Z,994.07
2018-06-21T03:45:20.684Z,994.05
2018-06-21T03:46:20.672Z,994.05
2018-06-21T03:47:20.654Z,994.11
2018-06-21T03:48:20.640Z,994.06
2018-06-21T03:49:20.632Z,994.08
2018-06-21T03:50:20.620Z,994.08
2018-06-21T03:51:20.603Z,994.07
2018-06-21T03:52:20.668Z,994.09
2018-06-21T03:53:20.568Z,994.03
2018-06-21T03:54:20.558Z,994.04
2018-06-21T03:55:20.548Z,994.02
2018-06-21T03:56:20.529Z,993.98
2018-06-21T03:57:20.522Z,994.01
2018-06-21T03:58:20.500Z,993.97
2018-06-21T03:59:20.485Z,993.96
2018-06-21T04:00:20.474Z,994.01
2018-06-21T04:01:20.462Z,994.04
2018-06-21T04:02:20.449Z,994.05
2018-06-21T04:03:20.436Z,994.01
2018-06-21T04:04:20.419Z,994.03
2018-06-21T04:05:20.427Z,994.03
2018-06-21T04:06:20.397Z,994.01
2018-06-21T04:07:20.381Z,993.98
2018-06-21T04:08:20.425Z,993.98
2018-06-21T04:09:20.355Z,993.96
2018-06-21T04:10:20.336Z,993.96
2018-06-21T04:11:20.328Z,993.92
2018-06-21T04:12:20.313Z,993.93
2018-06-21T04:13:20.302Z,993.95
2018-06-21T04:14:20.281Z,993.97
2018-06-21T04:15:20.272Z,993.95
2018-06-21T04:16:20.253Z,993.96
2018-06-21T04:17:20.243Z,993.98
2018-06-21T04:18:20.227Z,993.96
2018-06-21T04:19:20.215Z,993.91
2018-06-21T04:20:20.205Z,993.93
2018-06-21T04:21:20.195Z,993.94
2018-06-21T04:22:20.170Z,993.92
2018-06-21T04:23:20.160Z,993.93
2018-06-21T04:24:20.144Z,993.93
2018-06-21T04:25:20.128Z,993.89
2018-06-21T04:26:20.122Z,993.87
2018-06-21T04:27:20.105Z,993.82
2018-06-21T04:28:20.090Z,993.81
2018-06-21T04:29:20.077Z,993.82
2018-06-21T04:30:20.070Z,993.83
2018-06-21T04:31:20.054Z,993.84
2018-06-21T04:32:20.132Z,993.79
2018-06-21T04:33:20.026Z,993.78
2018-06-21T04:34:20.011Z,993.78
2018-06-21T04:35:19.995Z,993.79
2018-06-21T04:36:19.981Z,993.75
2018-06-21T04:37:19.969Z,993.78
2018-06-21T04:38:19.962Z,993.84
2018-06-21T04:39:19.939Z,993.83
2018-06-21T04:40:19.930Z,993.76
2018-06-21T04:41:19.914Z,993.74
2018-06-21T04:42:19.904Z,993.77
2018-06-21T04:43:19.886Z,993.76
2018-06-21T04:44:19.879Z,993.76
2018-06-21T04:45:19.866Z,993.75
2018-06-21T04:46:19.854Z,993.78
2018-06-21T04:47:19.840Z,993.81
2018-06-21T04:48:19.823Z,993.77
2018-06-21T04:49:19.815Z,993.72
2018-06-21T04:50:19.803Z,993.73
2018-06-21T04:51:19.789Z,993.72
2018-06-21T04:52:19.776Z,993.74
2018-06-21T04:53:19.761Z,993.74
2018-06-21T04:54:19.751Z,993.76
2018-06-21T04:55:19.732Z,993.80
2018-06-21T04:56:19.719Z,993.76
2018-06-21T04:57:19.713Z,993.75
2018-06-21T04:58:19.697Z,993.78
2018-06-21T04:59:19.684Z,993.75
2018-06-21T05:00:19.671Z,993.73
2018-06-21T05:01:19.663Z,993.74
2018-06-21T05:02:19.652Z,993.77
2018-06-21T05:03:19.641Z,993.78
2018-06-21T05:04:19.629Z,993.75
2018-06-21T05:05:19.609Z,993.75
2018-06-21T05:06:19.608Z,993.76
2018-06-21T05:07:19.586Z,993.72
2018-06-21T05:08:19.578Z,993.72
2018-06-21T05:09:19.566Z,993.69
2018-06-21T05:10:19.552Z,993.65
2018-06-21T05:11:19.545Z,993.67
2018-06-21T05:12:19.528Z,993.70
2018-06-21T05:13:19.521Z,993.70
2018-06-21T05:14:19.509Z,993.70
2018-06-21T05:15:19.490Z,993.64
2018-06-21T05:16:19.481Z,993.69
2018-06-21T05:17:19.475Z,993.70
2018-06-21T05:18:19.524Z,993.72
2018-06-21T05:19:19.452Z,993.68
2018-06-21T05:20:19.439Z,993.64
2018-06-21T05:21:19.424Z,993.74
2018-06-21T05:22:19.418Z,993.72
2018-06-21T05:23:19.409Z,993.71
2018-06-21T05:24:19.389Z,993.74
2018-06-21T05:25:19.939Z,993.75
2018-06-21T05:26:19.371Z,993.77
2018-06-21T05:27:19.361Z,993.78
2018-06-21T05:28:19.351Z,993.78
2018-06-21T05:29:19.338Z,993.77
2018-06-21T05:30:19.333Z,993.77
2018-06-21T05:31:19.313Z,993.77
2018-06-21T05:32:19.534Z,993.77
2018-06-21T05:33:19.290Z,993.78
2018-06-21T05:34:19.284Z,993.77
2018-06-21T05:35:19.271Z,993.78
2018-06-21T05:36:19.270Z,993.73
2018-06-21T05:37:19.259Z,993.78
2018-06-21T05:38:19.232Z,993.76
2018-06-21T05:39:19.239Z,993.79
2018-06-21T05:40:19.218Z,993.77
2018-06-21T05:41:19.208Z,993.76
2018-06-21T05:42:19.192Z,993.76
2018-06-21T05:43:19.180Z,993.75
2018-06-21T05:44:19.216Z,993.74
2018-06-21T05:45:19.161Z,993.76
2018-06-21T05:46:19.151Z,993.74
2018-06-21T05:47:19.142Z,993.79
2018-06-21T05:48:19.129Z,993.76
2018-06-21T05:49:19.119Z,993.74
2018-06-21T05:50:19.153Z,993.76
2018-06-21T05:51:19.093Z,993.76
2018-06-21T05:52:19.093Z,993.75
2018-06-21T05:53:19.084Z,993.75
2018-06-21T05:54:19.068Z,993.79
2018-06-21T05:55:19.052Z,993.81
2018-06-21T05:56:19.052Z,993.80
2018-06-21T05:57:19.036Z,993.80
2018-06-21T05:58:19.026Z,993.85
2018-06-21T05:59:19.016Z,993.86
2018-06-21T06:00:19.006Z,993.86
2018-06-21T06:01:18.993Z,993.84
2018-06-21T06:02:18.988Z,993.83
2018-06-21T06:03:18.974Z,993.84
2018-06-21T06:04:18.961Z,993.83
2018-06-21T06:05:18.955Z,993.85
2018-06-21T06:06:18.946Z,993.88
2018-06-21T06:07:18.926Z,993.92
2018-06-21T06:08:18.982Z,993.92
2018-06-21T06:09:18.907Z,993.96
2018-06-21T06:10:18.897Z,993.94
2018-06-21T06:11:18.887Z,993.95
2018-06-21T06:12:18.879Z,994.00
2018-06-21T06:13:18.869Z,994.00
2018-06-21T06:14:18.864Z,994.03
2018-06-21T06:15:18.852Z,994.03
2018-06-21T06:16:18.844Z,994.12
2018-06-21T06:17:18.834Z,994.02
2018-06-21T06:18:18.822Z,993.95
2018-06-21T06:19:18.817Z,994.00
2018-06-21T06:20:18.810Z,994.05
2018-06-21T06:21:18.788Z,994.03
2018-06-21T06:22:18.791Z,994.05
2018-06-21T06:23:18.782Z,994.04
2018-06-21T06:24:18.765Z,994.04
2018-06-21T06:25:18.752Z,994.01
2018-06-21T06:26:18.749Z,994.04
2018-06-21T06:27:18.733Z,994.02
2018-06-21T06:28:18.721Z,994.06
2018-06-21T06:29:18.723Z,994.05
2018-06-21T06:30:18.701Z,994.02
2018-06-21T06:31:18.693Z,994.05
2018-06-21T06:32:18.682Z,994.05
2018-06-21T06:33:18.685Z,994.01
2018-06-21T06:34:18.675Z,994.02
2018-06-21T06:35:18.657Z,994.01
2018-06-21T06:36:18.650Z,994.05
2018-06-21T06:37:18.638Z,994.10
2018-06-21T06:38:18.628Z,994.07
2018-06-21T06:39:18.618Z,994.07
2018-06-21T06:40:18.659Z,993.99
2018-06-21T06:41:18.602Z,994.12
2018-06-21T06:42:18.596Z,994.03
2018-06-21T06:43:18.588Z,994.04
2018-06-21T06:44:18.573Z,994.02
2018-06-21T06:45:18.565Z,994.02
2018-06-21T06:46:18.565Z,994.09
2018-06-21T06:47:18.548Z,994.06
2018-06-21T06:48:18.538Z,994.11
2018-06-21T06:49:18.529Z,994.09
2018-06-21T06:50:18.519Z,994.07
2018-06-21T06:51:18.513Z,994.02
2018-06-21T06:52:18.503Z,994.07
2018-06-21T06:53:18.497Z,994.03
2018-06-21T06:54:18.554Z,994.09
2018-06-21T06:55:18.479Z,994.06
2018-06-21T06:56:18.467Z,994.05
2018-06-21T06:57:18.452Z,994.08
2018-06-21T06:58:18.448Z,994.09
2018-06-21T06:59:18.442Z,994.10
2018-06-21T07:00:18.439Z,994.14
2018-06-21T07:01:18.426Z,994.17
2018-06-21T07:02:18.420Z,994.18
2018-06-21T07:03:18.410Z,994.19
2018-06-21T07:04:18.404Z,994.12
2018-06-21T07:05:18.391Z,994.16
2018-06-21T07:06:18.383Z,994.14
2018-06-21T07:07:18.374Z,994.18
2018-06-21T07:08:18.443Z,994.16
2018-06-21T07:09:18.362Z,994.15
2018-06-21T07:10:18.355Z,994.20
2018-06-21T07:11:18.345Z,994.23
2018-06-21T07:12:18.340Z,994.20
2018-06-21T07:13:18.333Z,994.18
2018-06-21T07:14:18.357Z,994.17
2018-06-21T07:15:18.318Z,994.16
2018-06-21T07:16:18.304Z,994.15
2018-06-21T07:17:18.301Z,994.12
2018-06-21T07:18:18.305Z,994.14
2018-06-21T07:19:18.282Z,994.16
2018-06-21T07:20:18.332Z,994.11
2018-06-21T07:21:18.269Z,994.15
2018-06-21T07:22:18.262Z,994.10
2018-06-21T07:23:18.260Z,994.11
2018-06-21T07:24:18.250Z,994.11
2018-06-21T07:25:18.250Z,994.09
2018-06-21T07:26:18.234Z,994.08
2018-06-21T07:27:18.230Z,994.12
2018-06-21T07:28:18.226Z,994.18
2018-06-21T07:29:18.217Z,994.11
2018-06-21T07:30:18.207Z,994.12
2018-06-21T07:31:18.198Z,994.11
2018-06-21T07:32:18.191Z,994.12
2018-06-21T07:33:18.184Z,994.10
2018-06-21T07:34:18.182Z,994.06
2018-06-21T07:35:18.177Z,994.13
2018-06-21T07:36:18.163Z,994.12
2018-06-21T07:37:18.159Z,994.07
2018-06-21T07:38:18.153Z,994.07
2018-06-21T07:39:18.147Z,994.04
2018-06-21T07:40:18.147Z,994.09
2018-06-21T07:41:18.134Z,994.06
2018-06-21T07:42:18.130Z,994.07
2018-06-21T07:43:18.128Z,994.11
2018-06-21T07:44:18.128Z,994.07
2018-06-21T07:45:18.114Z,994.09
2018-06-21T07:46:18.112Z,994.10
2018-06-21T07:47:18.102Z,994.16
2018-06-21T07:48:18.093Z,994.14
2018-06-21T07:49:18.096Z,994.11
2018-06-21T07:50:18.082Z,994.19
2018-06-21T07:51:18.076Z,994.12
2018-06-21T07:52:18.074Z,994.11
2018-06-21T07:53:18.070Z,994.10
2018-06-21T07:54:18.067Z,994.11
2018-06-21T07:55:18.063Z,994.02
2018-06-21T07:56:18.054Z,994.06
2018-06-21T07:57:18.047Z,994.14
2018-06-21T07:58:18.047Z,994.09
2018-06-21T07:59:18.032Z,994.09
2018-06-21T08:00:18.030Z,994.06
2018-06-21T08:01:18.023Z,994.04
2018-06-21T08:02:18.021Z,993.99
2018-06-21T08:03:18.013Z,994.06
2018-06-21T08:04:18.011Z,994.01
2018-06-21T08:05:18.008Z,994.03
2018-06-21T08:06:18.002Z,994.05
2018-06-21T08:07:17.995Z,994.07
2018-06-21T08:08:17.989Z,994.06
2018-06-21T08:09:17.981Z,994.05
2018-06-21T08:10:17.972Z,994.04
2018-06-21T08:11:17.972Z,994.05
2018-06-21T08:12:17.963Z,993.98
2018-06-21T08:13:17.957Z,994.00
2018-06-21T08:14:17.956Z,994.00
2018-06-21T08:15:17.947Z,994.01
2018-06-21T08:16:17.940Z,993.98
2018-06-21T08:17:17.937Z,994.01
2018-06-21T08:18:17.934Z,994.04
2018-06-21T08:19:17.925Z,994.07
2018-06-21T08:20:17.957Z,994.07
2018-06-21T08:21:17.912Z,994.10
2018-06-21T08:22:17.912Z,994.08
2018-06-21T08:23:17.930Z,994.08
2018-06-21T08:24:17.905Z,994.03
2018-06-21T08:25:17.902Z,994.02
2018-06-21T08:26:17.889Z,994.03
2018-06-21T08:27:17.883Z,994.04
2018-06-21T08:28:17.881Z,994.00
2018-06-21T08:29:17.878Z,994.04
2018-06-21T08:30:17.880Z,994.09
2018-06-21T08:31:17.867Z,994.08
2018-06-21T08:32:17.918Z,994.06
2018-06-21T08:33:17.858Z,994.11
2018-06-21T08:34:17.851Z,994.14
2018-06-21T08:35:17.841Z,994.09
2018-06-21T08:36:17.835Z,994.09
2018-06-21T08:37:17.835Z,994.09
2018-06-21T08:38:17.822Z,994.11
2018-06-21T08:39:17.816Z,994.13
2018-06-21T08:40:17.816Z,994.13
2018-06-21T08:41:17.809Z,994.10
2018-06-21T08:42:17.806Z,994.10
2018-06-21T08:43:17.793Z,994.15
2018-06-21T08:44:17.788Z,994.12
2018-06-21T08:45:17.798Z,994.18
2018-06-21T08:46:17.778Z,994.22
2018-06-21T08:47:17.778Z,994.19
2018-06-21T08:48:17.771Z,994.17
2018-06-21T08:49:17.768Z,994.18
2018-06-21T08:50:17.756Z,994.16
2018-06-21T08:51:17.752Z,994.19
2018-06-21T08:52:17.749Z,994.21
2018-06-21T08:53:17.742Z,994.24
2018-06-21T08:54:17.740Z,994.21
2018-06-21T08:55:17.732Z,994.23
2018-06-21T08:56:17.764Z,994.29
2018-06-21T08:57:17.727Z,994.25
2018-06-21T08:58:17.753Z,994.28
2018-06-21T08:59:17.714Z,994.29
2018-06-21T09:00:17.704Z,994.24
2018-06-21T09:01:17.698Z,994.27
2018-06-21T09:02:17.701Z,994.29
2018-06-21T09:03:17.695Z,994.31
2018-06-21T09:04:17.688Z,994.31
2018-06-21T09:05:17.679Z,994.33
2018-06-21T09:06:17.676Z,994.29
2018-06-21T09:07:17.672Z,994.32
2018-06-21T09:08:17.669Z,994.26
2018-06-21T09:09:17.660Z,994.30
2018-06-21T09:10:17.653Z,994.34
2018-06-21T10:03:24.077Z,994.46
2018-06-21T10:04:23.455Z,994.42
2018-06-21T10:05:23.352Z,994.45
2018-06-21T10:06:23.339Z,994.44
2018-06-21T10:07:23.333Z,994.45
2018-06-21T10:08:23.326Z,994.44
2018-06-21T10:09:23.330Z,994.46
2018-06-21T10:10:23.324Z,994.51
2018-06-21T10:11:23.310Z,994.49
2018-06-21T10:12:23.339Z,994.44
2018-06-21T10:13:23.342Z,994.44
2018-06-21T10:14:23.327Z,994.47
2018-06-21T10:15:23.310Z,994.41
2018-06-21T10:16:23.310Z,994.46
2018-06-21T10:17:23.304Z,994.41
2018-06-21T10:18:23.299Z,994.51
2018-06-21T10:19:23.304Z,994.50
2018-06-21T10:20:23.299Z,994.38
2018-06-21T10:21:23.279Z,994.42
2018-06-21T10:22:23.284Z,994.51
2018-06-21T10:23:23.266Z,994.56
2018-06-21T10:24:23.281Z,994.55
2018-06-21T10:25:23.269Z,994.48
2018-06-21T10:26:23.273Z,994.56
2018-06-21T10:27:23.274Z,994.49
2018-06-21T10:28:23.269Z,994.56
2018-06-21T10:29:23.249Z,994.58
2018-06-21T10:30:23.260Z,994.54
2018-06-21T10:31:23.221Z,994.57
2018-06-21T10:32:23.224Z,994.57
2018-06-21T10:33:23.211Z,994.52
2018-06-21T10:34:23.220Z,994.57
2018-06-21T10:35:23.212Z,994.59
2018-06-21T10:36:23.206Z,994.62
2018-06-21T10:37:23.201Z,994.63
2018-06-21T10:38:23.206Z,994.54
2018-06-21T10:39:23.206Z,994.56
2018-06-21T10:40:23.195Z,994.51
2018-06-21T10:41:23.202Z,994.46
2018-06-21T10:42:23.198Z,994.58
2018-06-21T10:43:23.192Z,994.56
2018-06-21T10:44:23.198Z,994.62
2018-06-21T10:45:23.196Z,994.57
2018-06-21T10:46:23.189Z,994.53
2018-06-21T10:47:23.189Z,994.57
2018-06-21T10:48:23.192Z,994.72
2018-06-21T10:49:23.198Z,994.67
2018-06-21T10:50:23.185Z,994.73
2018-06-21T10:51:23.196Z,994.84
2018-06-21T10:52:23.191Z,994.90
2018-06-21T10:53:23.189Z,994.97
2018-06-21T10:54:23.188Z,995.10
2018-06-21T10:55:23.176Z,995.11
2018-06-21T10:56:23.173Z,995.29
2018-06-21T10:57:23.183Z,995.17
2018-06-21T10:58:23.169Z,995.20
2018-06-21T10:59:23.166Z,995.21
2018-06-21T11:00:23.158Z,995.27
2018-06-21T11:01:23.160Z,995.29
2018-06-21T11:02:23.159Z,995.34
2018-06-21T11:03:23.182Z,995.30
2018-06-21T11:04:23.169Z,995.32
2018-06-21T11:05:23.177Z,995.24
2018-06-21T11:06:23.164Z,995.30
2018-06-21T11:07:23.151Z,995.36
2018-06-21T11:08:23.148Z,995.41
2018-06-21T11:09:23.134Z,995.37
2018-06-21T11:10:23.145Z,995.41
2018-06-21T11:11:23.122Z,995.39
2018-06-21T11:12:23.107Z,995.42
2018-06-21T11:13:23.096Z,995.39
2018-06-21T11:14:23.089Z,995.39
2018-06-21T11:15:23.084Z,995.40
2018-06-21T11:16:23.074Z,995.44
2018-06-21T11:17:23.061Z,995.47
2018-06-21T11:18:23.060Z,995.47
2018-06-21T11:19:23.054Z,995.49
2018-06-21T11:20:23.054Z,995.53
2018-06-21T11:21:23.053Z,995.51
2018-06-21T11:22:23.050Z,995.55
2018-06-21T11:23:23.035Z,995.63
2018-06-21T11:24:23.031Z,995.60
2018-06-21T11:25:23.024Z,995.65
2018-06-21T11:26:23.012Z,995.69
2018-06-21T11:27:23.012Z,995.68
2018-06-21T11:28:23.002Z,995.79
2018-06-21T11:29:23.004Z,995.75
2018-06-21T11:30:22.993Z,995.74
2018-06-21T11:31:22.989Z,995.71
2018-06-21T11:32:22.989Z,995.82
2018-06-21T11:33:22.983Z,995.74
2018-06-21T11:34:22.982Z,995.78
2018-06-21T11:35:22.973Z,995.79
2018-06-21T11:36:22.961Z,995.70
2018-06-21T11:37:22.957Z,995.69
2018-06-21T11:38:22.959Z,995.68
2018-06-21T11:39:22.952Z,995.75
2018-06-21T11:40:22.938Z,995.75
2018-06-21T11:41:22.932Z,995.74
2018-06-21T11:42:22.934Z,995.74
2018-06-21T11:43:22.922Z,995.75
2018-06-21T11:44:22.916Z,995.78
2018-06-21T11:45:22.922Z,995.78
2018-06-21T11:46:22.904Z,995.74
2018-06-21T11:47:22.900Z,995.74
2018-06-21T11:48:22.894Z,995.77
2018-06-21T11:49:22.884Z,995.77
2018-06-21T11:50:22.878Z,995.72
2018-06-21T11:51:22.868Z,995.70
2018-06-21T11:52:22.903Z,995.74
2018-06-21T11:53:22.854Z,995.75
2018-06-21T11:54:22.849Z,995.73
2018-06-21T11:55:22.846Z,995.63
2018-06-21T11:56:22.829Z,995.70
2018-06-21T11:57:22.818Z,995.72
2018-06-21T11:58:22.816Z,995.74
2018-06-21T11:59:22.809Z,995.76
2018-06-21T12:00:22.796Z,995.77
2018-06-21T12:01:22.797Z,995.75
2018-06-21T12:02:22.777Z,995.75
2018-06-21T12:03:22.783Z,995.71
2018-06-21T12:04:22.761Z,995.73
2018-06-21T12:05:22.761Z,995.76
2018-06-21T12:06:22.743Z,995.75
2018-06-21T12:07:22.736Z,995.71
2018-06-21T12:08:22.732Z,995.77
2018-06-21T12:09:22.720Z,995.75
2018-06-21T12:10:22.717Z,995.75
2018-06-21T12:11:22.701Z,995.69
2018-06-21T12:12:22.694Z,995.69
2018-06-21T12:13:22.688Z,995.70
2018-06-21T12:14:22.681Z,995.66
2018-06-21T12:15:22.672Z,995.69
2018-06-21T12:16:22.663Z,995.65
2018-06-21T12:17:22.649Z,995.64
2018-06-21T12:18:22.646Z,995.65
2018-06-21T12:19:22.638Z,995.62
2018-06-21T12:20:22.633Z,995.64
2018-06-21T12:21:22.618Z,995.66
2018-06-21T12:22:22.609Z,995.67
2018-06-21T12:23:22.605Z,995.70
2018-06-21T12:24:22.592Z,995.75
2018-06-21T12:25:22.622Z,995.72
2018-06-21T12:26:22.621Z,995.74
2018-06-21T12:27:22.580Z,995.68
2018-06-21T12:28:22.572Z,995.68
2018-06-21T12:29:22.568Z,995.65
2018-06-21T12:30:22.564Z,995.70
2018-06-21T12:31:22.557Z,995.62
2018-06-21T12:32:22.544Z,995.67
2018-06-21T12:33:22.547Z,995.67
2018-06-21T12:34:22.538Z,995.66
2018-06-21T12:35:22.535Z,995.69
2018-06-21T12:36:22.528Z,995.71
2018-06-21T12:37:22.528Z,995.71
2018-06-21T12:38:22.523Z,995.65
2018-06-21T12:39:22.525Z,995.68
2018-06-21T12:40:22.516Z,995.63
2018-06-21T12:41:22.516Z,995.69
2018-06-21T12:42:22.515Z,995.62
2018-06-21T12:43:22.512Z,995.55
2018-06-21T12:44:22.509Z,995.66
2018-06-21T12:45:22.515Z,995.60
2018-06-21T12:46:22.512Z,995.64
2018-06-21T12:47:22.509Z,995.58
2018-06-21T12:48:22.513Z,995.58
2018-06-21T12:49:22.512Z,995.73
2018-06-21T12:50:22.518Z,995.60
2018-06-21T12:51:22.519Z,995.62
2018-06-21T12:52:22.519Z,995.61
2018-06-21T12:53:22.512Z,995.58
2018-06-21T12:54:22.541Z,995.60
2018-06-21T12:55:22.509Z,995.62
2018-06-21T12:58:07.376Z,995.65
2018-06-21T12:58:54.602Z,995.61
2018-06-21T12:59:54.598Z,995.65
2018-06-21T13:00:54.602Z,995.69
2018-06-21T13:01:54.595Z,995.53
2018-06-21T13:02:54.599Z,995.59
2018-06-21T13:03:54.592Z,995.64
2018-06-21T13:04:54.593Z,995.68
2018-06-21T13:05:54.586Z,995.70
2018-06-21T13:06:54.582Z,995.66
2018-06-21T13:07:54.582Z,995.74
2018-06-21T13:08:54.580Z,995.75
2018-06-21T13:09:54.582Z,995.87
2018-06-21T13:10:54.574Z,995.74
2018-06-21T13:11:54.573Z,995.86
2018-06-21T13:12:54.579Z,995.81
2018-06-21T13:13:54.573Z,995.76
2018-06-21T13:14:54.578Z,995.77
2018-06-21T13:15:54.570Z,995.82
2018-06-21T13:16:54.574Z,995.82
2018-06-21T13:17:54.569Z,995.85
2018-06-21T13:18:54.569Z,995.77
2018-06-21T13:19:54.572Z,995.74
2018-06-21T13:20:54.573Z,995.78
2018-06-21T13:21:54.566Z,995.86